PDT,Max TemperatureF,Mean TemperatureF,Min TemperatureF,Max Dew PointF,MeanDew PointF,Min DewpointF,Max Humidity, Mean Humidity, Min Humidity, Max Sea Level PressureIn, Mean Sea Level PressureIn, Min Sea Level PressureIn, Max VisibilityMiles, Mean VisibilityMiles, Min VisibilityMiles, Max Wind SpeedMPH, Mean Wind SpeedMPH, Max Gust SpeedMPH,PrecipitationIn, CloudCover, Events, WindDirDegrees
2013-4-1,68,59,50,52,49,45,93,73,52,30.15,30.11,30.08,10,10,4,16,8,22,T,5,Rain,179
2013-4-2,77,62,46,47,45,43,93,62,31,30.19,30.12,30.02,10,10,6,14,4,,0.00,3,,329
2013-4-3,84,65,45,50,46,41,100,62,24,30.13,30.07,29.95,10,6,0,22,3,25,0.00,1,Fog,266
2013-4-4,75,62,48,53,49,45,86,65,44,30.13,30.07,30.01,10,10,10,18,7,23,0.01,4,Rain,201
2013-4-5,75,64,52,52,47,34,93,58,23,30.16,30.11,30.04,10,10,10,17,9,21,0.00,4,,319
2013-4-6,77,61,44,49,45,36,93,60,27,30.20,30.13,30.04,10,10,10,23,10,31,0.00,2,,314
2013-4-7,79,64,48,48,45,40,93,59,25,30.14,30.02,29.88,10,10,10,25,11,30,0.00,2,,326
2013-4-8,67,56,45,45,36,28,86,55,24,29.94,29.85,29.81,10,10,10,31,17,39,0.00,2,,315
2013-4-9,78,61,43,39,32,21,76,44,12,30.05,29.98,29.93,10,10,10,21,9,26,0.00,0,,329
2013-4-10,87,63,38,45,33,28,62,38,13,30.16,30.07,29.99,10,10,9,17,5,21,0.00,0,,283
2013-4-11,79,64,49,47,44,41,86,57,28,30.03,29.90,29.79,10,10,10,23,11,28,0.00,0,,324
2013-4-12,86,66,45,44,41,34,93,55,16,29.92,29.85,29.75,10,9,5,21,7,24,0.00,2,,321
2013-4-13,83,63,43,47,42,37,93,57,20,29.91,29.85,29.76,10,9,0,17,8,26,0.00,1,Fog,299
2013-4-14,82,61,40,41,37,32,85,51,17,29.90,29.84,29.76,10,10,10,31,10,37,0.00,0,,324
2013-4-15,68,55,42,46,37,24,92,57,22,29.94,29.88,29.82,10,10,10,28,12,37,0.00,2,,320
2013-4-16,69,52,35,36,30,22,79,48,17,30.08,30.00,29.95,10,10,10,28,12,32,0.00,0,,321
2013-4-17,73,55,36,33,26,16,76,44,12,30.21,30.14,30.09,10,10,10,20,10,26,0.00,0,,330
2013-4-18,78,56,33,31,24,12,70,40,9,30.27,30.21,30.15,10,10,10,17,4,20,0.00,0,,298
2013-4-19,86,61,36,40,31,26,64,38,12,30.25,30.14,30.02,10,10,10,21,5,26,0.00,0,,318
2013-4-20,88,65,42,44,39,35,70,43,16,30.06,30.00,29.90,10,10,10,17,6,21,0.00,0,,301
2013-4-21,92,68,44,41,34,11,65,35,5,30.02,29.96,29.88,10,10,10,12,4,16,0.00,0,,214
2013-4-22,91,69,46,49,40,32,65,39,13,29.96,29.89,29.81,10,10,10,18,4,,0.00,0,,199
2013-4-23,89,66,43,48,42,28,83,48,12,29.92,29.87,29.80,10,10,6,22,6,26,0.00,0,,227
2013-4-24,65,54,42,49,46,41,93,75,56,29.97,29.89,29.86,10,10,8,24,10,30,0.00,3,,202
2013-4-25,76,63,49,48,46,44,93,65,36,30.11,30.03,29.96,10,10,5,21,9,29,0.00,3,,227
2013-4-26,88,65,42,46,41,29,92,52,12,30.20,30.14,30.06,10,10,6,21,6,25,0.00,0,,308
2013-4-27,94,70,45,46,42,35,86,50,13,30.20,30.11,30.00,10,10,8,20,5,23,0.00,0,,322
2013-4-28,96,71,46,45,38,23,82,45,8,30.05,29.94,29.82,10,10,10,20,4,28,0.00,,,316
2013-4-29,96,72,48,45,41,36,66,40,13,29.89,29.81,29.71,10,10,4,23,6,29,0.00,0,,300
2013-4-30,83,67,51,50,47,42,83,55,26,29.85,29.77,29.73,10,10,10,23,9,28,0.00,0,,222